Time;durP1;ratioP1;P1;durP2;ratioP2;P2;SDS_P1;SDS_P2;PMS_P1;PMS_P2;Temp;Humidity;BMP_temperature;BMP_pressure;BME280_temperature;BME280_humidity;BME280_pressure;Samples;Min_cycle;Max_cycle;Signal;HPM_P1;HPM_P2
2021/06/24 00:01:57;;;;;;;18.00;4.93;;;23.70;99.90;;;23.17;72.91;100512.34;5008430;28;20232;-58
2021/06/24 00:04:24;;;;;;;16.85;5.10;;;23.70;99.90;;;23.14;72.75;100508.34;5008633;28;20141;-48
2021/06/24 00:06:50;;;;;;;14.50;3.88;;;23.60;99.90;;;23.11;73.69;100502.66;5008072;28;20034;-60
2021/06/24 00:09:16;;;;;;;15.02;4.82;;;23.60;99.90;;;23.10;73.36;100504.50;5007924;28;20045;-66
2021/06/24 00:11:42;;;;;;;15.02;4.38;;;23.60;99.90;;;23.11;73.07;100507.97;5006506;28;20042;-56
2021/06/24 00:14:08;;;;;;;10.30;4.43;;;23.60;99.90;;;23.10;73.08;100503.69;5008021;28;20148;-60
2021/06/24 00:16:34;;;;;;;16.30;5.10;;;23.60;99.90;;;23.06;73.69;100500.66;5007992;28;20033;-59
2021/06/24 00:19:00;;;;;;;20.58;5.25;;;23.50;99.90;;;23.06;73.96;100499.84;5008099;28;20064;-58
2021/06/24 00:21:26;;;;;;;16.63;5.07;;;23.50;99.90;;;23.01;73.82;100489.09;5007775;28;20041;-58
2021/06/24 00:23:52;;;;;;;19.77;5.75;;;23.50;99.90;;;22.97;74.23;100493.22;5007992;28;20116;-52
2021/06/24 00:26:18;;;;;;;21.08;4.75;;;23.50;99.90;;;22.92;74.82;100488.59;5007891;28;20141;-61
2021/06/24 00:28:44;;;;;;;21.55;5.28;;;23.40;99.90;;;22.90;74.29;100484.53;5007803;28;20053;-55
2021/06/24 00:31:10;;;;;;;19.05;5.65;;;23.40;99.90;;;22.86;74.12;100486.03;5007867;28;20557;-52
2021/06/24 00:33:36;;;;;;;11.25;3.55;;;23.40;99.90;;;22.83;73.78;100487.28;5006253;28;20184;-56
2021/06/24 00:36:03;;;;;;;19.77;4.10;;;23.30;99.90;;;22.81;73.82;100489.34;5007931;28;20038;-53
2021/06/24 00:38:29;;;;;;;22.35;5.28;;;23.30;99.90;;;22.78;73.67;100487.94;5008102;28;20125;-55
2021/06/24 00:40:55;;;;;;;11.95;4.05;;;23.30;99.90;;;22.75;73.64;100496.31;5007907;28;20045;-66
2021/06/24 00:43:26;;;;;;;15.38;3.72;;;23.30;99.90;;;22.74;73.31;100491.25;5007441;28;20152;-57
2021/06/24 00:45:52;;;;;;;12.18;4.68;;;23.20;99.90;;;22.71;73.33;100495.16;5022420;28;20516;-59
2021/06/24 00:48:18;;;;;;;13.90;3.97;;;23.20;99.90;;;22.68;73.76;100505.44;5007674;28;20026;-52
2021/06/24 00:50:46;;;;;;;25.42;4.45;;;23.20;99.90;;;22.65;73.73;100505.88;5007510;28;20030;-54
2021/06/24 00:53:13;;;;;;;16.15;4.13;;;23.20;99.90;;;22.60;74.48;100503.88;5007511;28;20113;-62
2021/06/24 00:55:46;;;;;;;20.02;5.28;;;23.10;99.90;;;22.54;75.43;100503.97;5007384;28;20133;-63
2021/06/24 00:58:21;;;;;;;17.10;5.00;;;23.10;99.90;;;22.46;76.16;100505.06;5006087;28;20057;-58
2021/06/24 01:00:51;;;;;;;20.10;5.10;;;23.00;99.90;;;22.42;75.57;100502.03;5007549;28;20037;-62
2021/06/24 01:03:18;;;;;;;17.98;5.22;;;22.90;99.90;;;22.40;76.19;100503.28;5007947;28;20137;-53
2021/06/24 01:05:45;;;;;;;17.38;4.45;;;22.90;99.90;;;22.38;76.14;100502.69;5007751;28;20041;-58
2021/06/24 01:08:16;;;;;;;18.60;6.20;;;22.90;99.90;;;22.37;76.28;100503.72;5007611;28;20034;-60
2021/06/24 01:10:47;;;;;;;21.33;5.07;;;22.90;99.90;;;22.39;75.95;100504.31;5005988;28;20044;-51
2021/06/24 01:13:14;;;;;;;16.85;4.00;;;22.90;99.90;;;22.38;75.77;100500.03;5007540;28;20280;-52
2021/06/24 01:15:41;;;;;;;23.35;5.80;;;22.80;99.90;;;22.34;75.31;100498.88;5007707;28;20072;-53
2021/06/24 01:18:08;;;;;;;13.73;4.63;;;22.80;99.90;;;22.33;74.52;100494.59;5007572;28;20033;-57
2021/06/24 01:20:36;;;;;;;21.95;4.38;;;22.80;99.90;;;22.38;73.44;100490.25;5007510;28;20041;-50
2021/06/24 01:23:04;;;;;;;12.30;3.63;;;22.80;99.90;;;22.42;73.14;100477.34;5008046;28;20030;-52
2021/06/24 01:25:31;;;;;;;21.92;5.40;;;22.90;99.90;;;22.34;73.29;100478.44;5011578;28;20034;-64
2021/06/24 01:28:10;;;;;;;17.33;4.35;;;22.80;99.90;;;22.28;73.37;100473.19;5011307;28;20042;-61
2021/06/24 01:30:39;;;;;;;24.00;3.50;;;22.80;99.90;;;22.24;72.71;100477.31;5011258;28;20076;-57
2021/06/24 01:33:07;;;;;;;18.02;4.50;;;22.70;99.90;;;22.35;72.12;100473.94;5011457;28;20034;-60
2021/06/24 01:35:34;;;;;;;19.65;4.55;;;22.80;99.90;;;22.40;71.50;100476.75;5011084;28;20034;-61
2021/06/24 01:38:04;;;;;;;20.60;4.22;;;22.80;99.90;;;22.40;71.25;100484.72;5011028;28;20038;-54
2021/06/24 01:40:31;;;;;;;19.85;4.13;;;22.90;99.90;;;22.48;70.80;100489.72;5010843;28;20176;-57
2021/06/24 01:42:58;;;;;;;19.33;4.07;;;22.90;99.90;;;22.46;70.68;100481.97;5010817;28;20045;-57
2021/06/24 01:45:24;;;;;;;16.70;4.45;;;22.90;99.90;;;22.42;71.51;100480.00;5011151;28;20022;-64
2021/06/24 01:47:51;;;;;;;29.30;5.35;;;22.90;99.90;;;22.38;71.98;100478.81;5011192;28;20038;-55
2021/06/24 01:50:17;;;;;;;13.85;4.45;;;22.90;99.90;;;22.31;73.28;100484.19;5011139;28;20029;-50
2021/06/24 01:52:45;;;;;;;24.98;5.20;;;22.80;99.90;;;22.23;74.13;100484.47;5010867;28;20449;-54
2021/06/24 01:55:13;;;;;;;12.63;4.75;;;22.80;99.90;;;22.16;76.91;100478.44;5010831;28;20048;-60
2021/06/24 01:57:39;;;;;;;17.85;4.97;;;22.70;99.90;;;22.02;76.74;100476.94;5009229;28;20034;-62
2021/06/24 02:00:12;;;;;;;15.35;4.30;;;22.60;99.90;;;21.94;76.92;100480.66;5011020;28;20049;-58
2021/06/24 02:02:39;;;;;;;14.20;3.97;;;22.50;99.90;;;21.95;75.49;100482.28;5010593;28;20045;-59
2021/06/24 02:05:07;;;;;;;14.05;3.92;;;22.50;99.90;;;21.96;75.35;100475.13;5010449;28;20501;-55
2021/06/24 02:07:37;;;;;;;16.05;4.85;;;22.50;99.90;;;21.93;75.36;100479.03;5008806;28;20037;-52
2021/06/24 02:10:04;;;;;;;14.30;4.78;;;22.40;99.90;;;21.92;75.19;100485.38;5010359;28;20123;-53
2021/06/24 02:12:29;;;;;;;17.08;4.57;;;22.40;99.90;;;21.90;75.71;100482.13;5010321;28;20446;-57
2021/06/24 02:14:56;;;;;;;16.35;4.20;;;22.40;99.90;;;21.90;75.12;100482.13;5008910;28;20060;-54
2021/06/24 02:17:22;;;;;;;18.23;4.30;;;22.40;99.90;;;21.91;74.70;100482.94;5010766;28;20038;-53
2021/06/24 02:19:48;;;;;;;17.25;3.33;;;22.40;99.90;;;21.99;73.21;100477.34;5010176;28;20048;-59
2021/06/24 02:22:16;;;;;;;13.52;4.05;;;22.40;99.90;;;22.04;72.60;100478.34;5009968;28;20125;-60
2021/06/24 02:24:42;;;;;;;17.70;3.55;;;22.50;99.90;;;22.04;72.47;100473.06;5010151;28;20123;-65
2021/06/24 02:27:08;;;;;;;15.23;3.63;;;22.50;99.90;;;22.06;71.81;100471.00;5010055;28;20029;-53
2021/06/24 02:29:34;;;;;;;14.93;3.80;;;22.50;99.90;;;22.09;71.18;100475.03;5010398;28;20122;-66
2021/06/24 02:32:00;;;;;;;12.90;3.35;;;22.50;99.90;;;22.09;71.34;100475.03;5010194;28;20527;-55
2021/06/24 02:34:27;;;;;;;19.48;4.25;;;22.60;99.90;;;22.09;71.06;100469.75;5008910;28;20502;-50
2021/06/24 02:36:53;;;;;;;23.08;4.07;;;22.50;99.90;;;22.10;70.95;100466.88;5009662;28;20420;-51
2021/06/24 02:39:18;;;;;;;15.38;3.88;;;22.60;99.90;;;22.06;70.82;100462.22;5009818;28;20048;-52
2021/06/24 02:41:44;;;;;;;22.20;4.65;;;22.50;99.90;;;22.05;70.71;100460.59;5241087;22;20089;-55
2021/06/24 02:44:10;;;;;;;16.23;4.20;;;22.50;99.90;;;22.01;72.17;100464.69;5028437;28;20084;-48
2021/06/24 02:46:37;;;;;;;19.13;3.97;;;22.50;99.90;;;21.89;73.20;100469.91;5029252;28;20072;-53
2021/06/24 02:49:03;;;;;;;19.55;3.88;;;22.50;99.90;;;21.80;73.77;100466.69;5029284;28;20041;-57
2021/06/24 02:51:29;;;;;;;12.98;3.95;;;22.40;99.90;;;21.74;74.27;100464.91;5029303;28;20038;-60
2021/06/24 02:53:54;;;;;;;17.95;3.85;;;22.30;99.90;;;21.74;73.87;100472.09;5029211;28;20044;-65
2021/06/24 02:56:23;;;;;;;16.23;3.70;;;22.20;99.90;;;21.73;73.98;100470.47;5029263;28;20099;-58
2021/06/24 02:58:50;;;;;;;19.10;4.30;;;22.30;99.90;;;21.69;74.61;100480.69;5028942;28;20040;-56
2021/06/24 03:01:17;;;;;;;21.92;4.40;;;22.20;99.90;;;21.64;74.95;100477.88;5029138;28;20041;-51
2021/06/24 03:03:44;;;;;;;14.35;3.88;;;22.10;99.90;;;21.63;74.43;100481.56;5029751;28;20104;-57
2021/06/24 03:06:10;;;;;;;20.77;3.63;;;22.20;99.90;;;21.69;74.11;100479.88;5029092;28;20037;-58
2021/06/24 03:08:36;;;;;;;15.25;3.65;;;22.20;99.90;;;21.68;74.08;100475.59;5028881;28;20498;-48
2021/06/24 03:11:02;;;;;;;18.80;3.78;;;22.20;99.90;;;21.64;74.01;100466.47;5028697;28;20124;-56
2021/06/24 03:13:28;;;;;;;13.30;2.83;;;22.20;99.90;;;21.60;73.93;100465.28;5028999;28;20041;-51
2021/06/24 03:15:54;;;;;;;15.38;3.92;;;22.10;99.90;;;21.60;73.96;100466.09;5029115;28;20021;-56
2021/06/24 03:18:20;;;;;;;16.67;3.65;;;22.10;99.90;;;21.61;74.07;100478.31;5028619;28;20033;-61
2021/06/24 03:20:46;;;;;;;21.63;3.45;;;22.10;99.90;;;21.59;74.49;100474.25;5028802;28;20077;-59
2021/06/24 03:23:12;;;;;;;22.58;5.05;;;22.10;99.90;;;21.63;73.65;100465.66;5028569;28;20056;-60
2021/06/24 03:25:38;;;;;;;20.30;3.97;;;22.10;99.90;;;21.68;72.97;100475.59;5043498;28;20079;-51
2021/06/24 03:28:04;;;;;;;22.13;4.75;;;22.10;99.90;;;21.66;73.09;100470.53;5028770;28;20179;-56
2021/06/24 03:30:30;;;;;;;14.93;3.83;;;22.10;99.90;;;21.67;72.46;100474.78;5028854;28;20417;-60
2021/06/24 03:32:56;;;;;;;13.73;3.60;;;22.10;99.90;;;21.68;72.88;100473.78;5028423;28;20117;-56
2021/06/24 03:35:22;;;;;;;17.67;5.18;;;22.20;99.90;;;21.64;73.91;100474.41;5028516;28;20159;-50
2021/06/24 03:37:48;;;;;;;17.58;4.60;;;22.10;99.90;;;21.62;74.42;100468.50;5028310;28;20577;-57
2021/06/24 03:40:18;;;;;;;17.52;3.78;;;22.10;99.90;;;21.67;74.23;100481.94;5028204;28;20388;-60
2021/06/24 03:42:45;;;;;;;18.45;4.10;;;22.20;99.90;;;21.72;73.69;100474.97;5026671;28;20123;-58
2021/06/24 03:45:12;;;;;;;15.27;4.63;;;22.20;99.90;;;21.72;74.07;100474.16;5028315;28;20021;-54
2021/06/24 03:47:38;;;;;;;20.65;4.47;;;22.20;99.90;;;21.79;73.47;100461.63;5027538;28;20276;-54
2021/06/24 03:50:05;;;;;;;14.60;3.58;;;22.30;99.90;;;21.85;73.01;100471.34;5018797;28;20559;-53
2021/06/24 03:52:31;;;;;;;14.63;4.10;;;22.40;99.90;;;21.96;72.01;100465.34;5008277;28;20499;-57
2021/06/24 03:54:57;;;;;;;17.55;3.17;;;22.40;99.90;;;22.03;71.78;100466.13;5022424;28;20034;-62
2021/06/24 03:57:23;;;;;;;14.43;4.00;;;22.60;99.90;;;22.06;71.39;100464.88;5027848;28;20149;-55
2021/06/24 03:59:48;;;;;;;15.95;3.60;;;22.60;99.90;;;22.08;71.62;100468.94;5027038;28;20150;-52
2021/06/24 04:02:14;;;;;;;18.40;4.00;;;22.60;99.90;;;22.14;71.76;100467.25;5027848;28;20041;-48
2021/06/24 04:04:41;;;;;;;22.33;3.80;;;22.70;99.90;;;22.13;72.00;100466.44;5018927;28;20481;-52
2021/06/24 04:07:07;;;;;;;17.70;3.58;;;22.70;99.90;;;22.27;70.68;100468.94;5024962;28;20084;-52
2021/06/24 04:09:32;;;;;;;19.13;3.17;;;22.90;99.90;;;22.52;69.30;100475.78;5026550;28;20160;-63
2021/06/24 04:11:58;;;;;;;13.52;3.22;;;23.10;99.90;;;22.99;67.55;100475.22;5023540;28;20052;-53
2021/06/24 04:14:25;;;;;;;24.95;4.55;;;23.60;99.90;;;23.65;65.55;100479.53;5026002;28;20127;-51
2021/06/24 04:16:50;;;;;;;16.60;3.70;;;24.30;99.90;;;24.28;63.53;100476.22;5026192;28;20056;-50
2021/06/24 04:19:17;;;;;;;17.30;3.80;;;25.10;99.90;;;24.45;63.13;100480.59;5023661;28;20464;-55
2021/06/24 04:21:43;;;;;;;14.38;3.83;;;25.50;99.90;;;24.40;63.84;100479.66;5027431;28;20037;-55
2021/06/24 04:24:09;;;;;;;15.40;3.05;;;25.60;99.90;;;24.83;62.36;100473.03;5024290;28;20037;-57
2021/06/24 04:26:35;;;;;;;16.65;3.53;;;26.00;99.90;;;24.71;62.94;100473.09;5027481;28;20036;-64
2021/06/24 04:29:01;;;;;;;19.10;4.10;;;26.00;99.90;;;25.00;62.13;100468.59;5015783;28;20050;-56
2021/06/24 04:31:27;;;;;;;22.70;3.28;;;26.40;99.00;;;25.23;61.41;100471.13;5007689;28;20044;-53
2021/06/24 04:33:53;;;;;;;13.85;3.83;;;26.70;98.00;;;25.34;60.54;100472.13;5014007;28;20129;-62
2021/06/24 04:36:19;;;;;;;16.63;3.60;;;26.90;97.20;;;25.54;60.03;100469.75;5027204;28;20155;-54
2021/06/24 04:38:45;;;;;;;16.63;3.40;;;27.10;96.30;;;26.22;57.89;100481.19;5025965;28;20128;-62
2021/06/24 04:41:11;;;;;;;18.65;3.25;;;27.70;95.50;;;26.33;57.47;100474.97;5027415;28;20526;-51
2021/06/24 04:43:37;;;;;;;25.38;3.80;;;27.90;94.20;;;26.58;56.68;100477.13;5020192;28;20042;-51
2021/06/24 04:46:03;;;;;;;17.95;3.08;;;28.30;93.10;;;26.48;57.62;100466.31;5007697;28;20488;-58
2021/06/24 04:48:29;;;;;;;16.17;3.53;;;28.20;93.20;;;26.64;57.50;100466.25;5009506;28;20046;-59
2021/06/24 04:50:55;;;;;;;14.73;3.75;;;28.50;92.50;;;26.80;57.14;100471.75;5026527;28;20397;-62
2021/06/24 04:53:21;;;;;;;16.63;3.45;;;28.50;92.80;;;26.69;57.67;100476.19;5023076;28;20037;-55
2021/06/24 04:55:47;;;;;;;14.95;3.75;;;28.60;92.10;;;27.01;56.50;100473.59;5022450;28;20633;-60
2021/06/24 04:58:13;;;;;;;15.02;2.80;;;28.80;91.50;;;26.87;56.74;100456.34;5041660;28;20495;-55
2021/06/24 05:00:39;;;;;;;17.05;2.83;;;28.80;90.70;;;26.64;56.67;100455.56;5030230;28;20056;-58
2021/06/24 05:03:09;;;;;;;15.00;3.40;;;28.70;90.70;;;26.73;56.74;100459.41;5031398;28;20030;-57
2021/06/24 05:05:35;;;;;;;19.95;3.30;;;28.70;90.50;;;27.07;55.52;100451.19;5028589;28;20052;-55
2021/06/24 05:08:10;;;;;;;18.25;3.25;;;28.90;90.10;;;27.26;55.04;100460.47;5031148;28;20496;-58
2021/06/24 05:10:37;;;;;;;14.52;3.25;;;29.20;88.30;;;27.75;53.88;100466.50;5028723;28;20034;-52
2021/06/24 05:13:03;;;;;;;22.13;3.92;;;29.70;86.60;;;27.96;53.78;100462.03;5046122;28;20248;-50
2021/06/24 05:15:29;;;;;;;19.15;3.05;;;29.90;86.30;;;27.60;54.56;100457.53;5026417;28;20044;-53
2021/06/24 05:17:56;;;;;;;10.98;3.33;;;30.10;84.40;;;27.88;53.70;100464.44;5030948;28;20079;-62
2021/06/24 05:20:22;;;;;;;13.98;3.58;;;30.10;83.60;;;27.63;53.97;100463.19;5029727;28;20042;-53
2021/06/24 05:22:48;;;;;;;17.08;3.00;;;30.10;82.40;;;28.30;52.77;100461.72;5045926;28;20034;-57
2021/06/24 05:25:14;;;;;;;15.77;3.53;;;30.40;82.00;;;28.17;53.31;100468.31;5029983;28;20033;-58
2021/06/24 05:27:40;;;;;;;17.30;3.67;;;30.70;80.90;;;27.78;54.77;100465.16;5030705;28;20111;-65
2021/06/24 05:30:07;;;;;;;11.52;3.40;;;30.50;81.10;;;28.54;52.98;100467.44;5029309;28;20483;-59
2021/06/24 05:32:33;;;;;;;12.43;4.53;;;31.00;80.20;;;28.52;53.08;100480.28;5030771;28;20065;-59
2021/06/24 05:34:59;;;;;;;17.35;3.60;;;31.10;79.40;;;28.25;53.48;100485.81;5025324;28;20075;-61
2021/06/24 05:37:25;;;;;;;17.25;3.25;;;31.30;77.40;;;28.45;52.86;100482.41;5030706;28;20389;-65
2021/06/24 05:39:50;;;;;;;17.10;3.58;;;31.10;78.00;;;28.25;53.75;100486.63;5026185;28;20059;-67
2021/06/24 05:42:17;;;;;;;15.40;4.13;;;31.00;78.00;;;28.09;53.92;100493.72;5028721;28;20068;-59
2021/06/24 05:44:43;;;;;;;14.40;3.13;;;30.70;78.20;;;27.79;54.51;100487.38;5025499;28;20033;-56
2021/06/24 05:47:08;;;;;;;20.90;4.38;;;30.20;79.60;;;27.48;54.80;100488.97;5030653;28;20041;-62
2021/06/24 05:49:34;;;;;;;15.15;3.30;;;30.00;79.60;;;26.46;57.68;100485.28;5028249;28;20335;-56
2021/06/24 05:52:00;;;;;;;14.30;4.25;;;28.60;84.30;;;26.96;56.39;100484.22;5030205;28;20037;-58
2021/06/24 05:54:26;;;;;;;14.40;3.15;;;28.70;85.20;;;28.14;53.40;100490.28;5026407;28;20046;-54
2021/06/24 05:56:52;;;;;;;15.60;3.20;;;29.90;82.20;;;28.96;51.25;100491.41;5030420;28;20025;-53
2021/06/24 05:59:18;;;;;;;9.65;3.45;;;31.00;78.00;;;29.04;51.12;100491.72;5029031;28;20049;-51
2021/06/24 06:01:47;;;;;;;21.90;4.30;;;31.60;75.80;;;29.12;50.96;100493.06;5030009;28;20041;-57
2021/06/24 06:04:14;;;;;;;15.70;3.60;;;31.50;76.00;;;29.26;50.55;100486.09;5026175;28;20064;-53
2021/06/24 06:06:40;;;;;;;16.38;3.35;;;31.80;74.40;;;29.11;50.94;100488.78;5028663;28;20112;-56
2021/06/24 06:09:07;;;;;;;18.10;3.40;;;31.80;73.40;;;29.48;50.26;100477.00;5028687;28;20194;-62
2021/06/24 06:11:33;;;;;;;16.10;3.55;;;32.20;72.70;;;30.14;48.73;100476.91;5028928;28;20072;-52
2021/06/24 06:13:59;;;;;;;15.18;3.95;;;32.90;70.20;;;30.49;47.26;100476.75;5024839;28;20037;-57
2021/06/24 06:16:27;;;;;;;16.63;3.20;;;33.10;69.00;;;30.38;47.33;100481.38;5028557;28;20029;-58
2021/06/24 06:18:53;;;;;;;18.38;3.45;;;33.20;68.50;;;31.04;46.46;100472.16;5024140;28;20036;-55
2021/06/24 06:21:20;;;;;;;13.63;3.05;;;33.70;67.20;;;31.18;46.21;100475.06;5023939;28;20125;-60
2021/06/24 06:23:46;;;;;;;18.77;3.65;;;34.10;65.60;;;31.41;45.49;100473.50;5029671;28;20033;-51
2021/06/24 06:26:12;;;;;;;18.48;3.53;;;34.50;64.90;;;31.62;44.82;100477.63;5026835;28;20396;-48
2021/06/24 06:28:38;;;;;;;20.10;3.20;;;34.60;63.20;;;32.04;44.44;100476.16;5028489;28;20040;-53
2021/06/24 06:31:04;;;;;;;21.40;3.85;;;34.90;63.10;;;32.18;42.97;100477.03;5026691;28;20136;-53
2021/06/24 06:33:30;;;;;;;20.50;3.38;;;35.50;60.70;;;32.20;43.77;100482.94;5027386;28;20181;-54
2021/06/24 06:35:56;;;;;;;15.23;3.33;;;35.30;61.20;;;31.86;44.24;100480.38;5029261;28;20033;-58
2021/06/24 06:38:23;;;;;;;13.30;2.80;;;35.00;60.50;;;31.88;43.99;100481.69;5029649;28;20045;-56
2021/06/24 06:40:52;;;;;;;15.57;3.55;;;35.10;60.10;;;31.75;44.25;100482.38;5026364;28;20334;-50
2021/06/24 06:43:19;;;;;;;22.13;3.80;;;34.80;60.40;;;32.30;43.23;100485.56;5023715;28;20049;-57
2021/06/24 06:45:47;;;;;;;26.30;3.58;;;35.20;60.50;;;32.54;42.96;100489.03;5044212;28;20123;-53
2021/06/24 06:48:14;;;;;;;17.77;3.08;;;35.80;59.30;;;32.55;42.49;100496.03;5035857;28;20072;-53
2021/06/24 06:50:41;;;;;;;23.52;3.75;;;36.00;58.20;;;32.34;43.16;100497.38;5047970;28;20360;-50
2021/06/24 06:53:07;;;;;;;21.67;4.63;;;35.60;58.30;;;32.76;41.78;100501.16;5048350;28;20033;-53
2021/06/24 06:55:38;;;;;;;15.27;2.97;;;35.30;59.00;;;32.56;41.62;100499.53;5048523;28;20077;-47
2021/06/24 06:58:04;;;;;;;17.20;2.97;;;35.30;58.70;;;32.86;41.35;100501.84;5064051;28;20147;-51
2021/06/24 07:00:31;;;;;;;21.85;3.60;;;35.60;58.10;;;33.14;40.92;100502.75;5049121;28;20108;-55
2021/06/24 07:02:58;;;;;;;25.13;4.00;;;36.10;57.30;;;32.95;40.79;100504.69;5047539;28;20511;-53
2021/06/24 07:05:25;;;;;;;24.17;3.50;;;35.90;56.90;;;33.40;39.47;100505.09;5048825;28;20113;-55
2021/06/24 07:07:52;;;;;;;20.85;3.60;;;36.20;56.00;;;34.05;38.33;100505.81;5048512;28;20059;-54
2021/06/24 07:10:18;;;;;;;17.70;3.58;;;36.70;55.10;;;34.21;37.65;100509.03;5048717;28;20585;-51
2021/06/24 07:12:44;;;;;;;19.88;3.25;;;36.30;56.10;;;33.35;39.80;100514.06;5048588;28;20151;-53
2021/06/24 07:15:11;;;;;;;22.13;3.83;;;35.00;58.60;;;32.90;40.59;100518.25;5048474;28;20045;-50
2021/06/24 07:17:37;;;;;;;23.08;3.83;;;34.20;60.20;;;32.62;40.87;100503.75;5048336;28;20182;-51
2021/06/24 07:20:05;;;;;;;27.85;4.50;;;33.70;60.60;;;31.83;42.15;100511.38;5048576;28;20429;-55
2021/06/24 07:22:31;;;;;;;28.38;4.10;;;33.10;61.20;;;31.39;43.21;100513.38;5047900;28;20036;-54
2021/06/24 07:24:57;;;;;;;22.38;3.53;;;32.60;62.50;;;31.44;42.58;100516.03;5048614;28;20051;-56
2021/06/24 07:27:22;;;;;;;25.05;3.60;;;32.40;62.70;;;31.56;42.89;100513.78;5048241;28;20337;-56
2021/06/24 07:29:48;;;;;;;39.20;5.95;;;32.40;63.20;;;31.91;41.88;100507.28;5048533;28;20106;-57
2021/06/24 07:32:15;;;;;;;30.40;4.00;;;32.70;62.70;;;31.95;41.53;100502.91;5048683;28;20037;-57
2021/06/24 07:34:41;;;;;;;25.73;4.75;;;32.80;62.10;;;31.90;41.03;100511.84;5048315;28;20076;-55
2021/06/24 07:37:07;;;;;;;20.35;4.85;;;32.80;61.70;;;31.90;40.59;100506.47;5048063;28;20116;-55
2021/06/24 07:39:33;;;;;;;19.45;4.30;;;32.90;61.30;;;31.61;41.47;100506.47;5048112;28;20032;-50
2021/06/24 07:41:59;;;;;;;25.02;3.88;;;32.60;61.90;;;31.66;41.97;100511.81;5047566;28;20033;-54
2021/06/24 07:44:24;;;;;;;21.02;3.60;;;32.40;62.60;;;31.78;41.00;100508.72;5048088;28;20404;-59
2021/06/24 07:46:50;;;;;;;18.50;3.83;;;32.40;61.90;;;31.84;40.46;100513.00;5048002;28;20079;-58
2021/06/24 07:49:16;;;;;;;25.95;3.88;;;32.40;61.90;;;31.55;41.28;100507.59;5047999;28;20037;-60
2021/06/24 07:51:42;;;;;;;22.65;4.57;;;32.20;62.00;;;32.09;40.55;100513.81;5063072;28;20037;-57
2021/06/24 07:54:08;;;;;;;29.52;4.75;;;32.60;61.90;;;32.61;39.56;100515.66;5047765;28;20044;-52
2021/06/24 07:56:34;;;;;;;29.70;5.22;;;33.10;61.40;;;32.98;38.99;100509.50;5047720;28;20125;-55
2021/06/24 07:59:00;;;;;;;28.23;4.10;;;33.40;60.90;;;33.16;38.24;100514.06;5048096;28;20056;-56
2021/06/24 08:01:26;;;;;;;32.10;5.05;;;33.60;60.00;;;32.99;38.89;100516.50;5047907;28;20055;-57
2021/06/24 08:03:54;;;;;;;33.75;5.35;;;33.70;59.70;;;32.46;39.33;100507.75;5047995;28;20746;-54
2021/06/24 08:06:20;;;;;;;37.03;5.53;;;33.30;59.60;;;32.40;39.60;100507.00;5062860;28;20122;-53
2021/06/24 08:08:46;;;;;;;29.02;4.80;;;33.10;59.80;;;32.74;38.56;100514.13;5047380;28;20029;-54
2021/06/24 08:11:12;;;;;;;23.98;4.97;;;33.20;59.90;;;32.66;38.62;100513.66;5047326;28;20127;-58
2021/06/24 08:13:38;;;;;;;29.25;4.90;;;33.40;59.20;;;32.25;39.11;100501.78;5047699;28;20033;-58
2021/06/24 08:16:05;;;;;;;26.00;3.85;;;33.20;59.20;;;32.03;39.98;100507.69;5047357;28;20037;-55
2021/06/24 08:18:31;;;;;;;26.20;3.60;;;32.90;60.00;;;31.91;39.85;100508.06;5047551;28;20196;-53
2021/06/24 08:20:57;;;;;;;28.23;3.90;;;32.80;59.90;;;31.91;39.73;100504.56;5047415;28;20086;-51
2021/06/24 08:23:23;;;;;;;32.55;5.03;;;32.80;59.60;;;32.27;39.16;100510.41;5047378;28;20455;-54
2021/06/24 08:25:49;;;;;;;25.20;4.63;;;32.80;60.20;;;31.94;39.68;100518.28;5047538;28;20068;-56
2021/06/24 08:28:16;;;;;;;23.42;4.32;;;32.80;59.20;;;32.48;38.71;100514.47;5047539;28;20072;-58
2021/06/24 08:30:44;;;;;;;24.23;3.83;;;32.90;59.40;;;32.76;38.73;100520.06;5047357;28;20130;-59
2021/06/24 08:33:15;;;;;;;27.83;4.53;;;33.10;59.80;;;32.73;38.74;100517.91;5062001;28;20040;-55
2021/06/24 08:35:42;;;;;;;31.13;4.45;;;33.10;59.60;;;32.59;38.96;100510.56;5046848;28;20040;-57
2021/06/24 08:38:10;;;;;;;26.08;3.95;;;33.10;59.60;;;32.69;38.81;100516.88;5062179;28;20066;-51
2021/06/24 08:40:40;;;;;;;34.08;5.25;;;33.10;59.70;;;32.14;39.45;100511.06;5062315;28;20123;-50
2021/06/24 08:43:07;;;;;;;25.02;4.53;;;33.00;59.40;;;32.24;39.18;100516.34;5046717;28;20057;-53
2021/06/24 08:45:33;;;;;;;22.17;4.40;;;32.70;60.30;;;32.32;39.61;100513.03;5062084;28;20029;-51
2021/06/24 08:48:01;;;;;;;24.13;4.03;;;32.70;60.70;;;32.77;39.32;100525.16;5062125;28;20116;-51
2021/06/24 08:50:27;;;;;;;29.50;4.57;;;33.00;60.90;;;32.99;38.94;100524.59;5047151;28;20465;-54
2021/06/24 08:52:55;;;;;;;37.95;5.05;;;33.30;60.40;;;32.91;38.90;100514.44;5007279;28;20117;-54
2021/06/24 08:55:21;;;;;;;30.98;5.35;;;33.30;59.90;;;32.86;38.83;100528.00;5022452;28;20563;-59
2021/06/24 08:57:48;;;;;;;53.60;7.70;;;33.20;60.00;;;33.02;39.27;100534.81;5007604;28;20044;-53
2021/06/24 09:00:15;;;;;;;32.55;5.70;;;33.30;60.60;;;33.47;37.92;100529.81;5007328;28;20045;-58
2021/06/24 09:02:46;;;;;;;39.38;5.97;;;33.60;60.30;;;33.48;38.30;100539.53;5007264;28;20045;-55
2021/06/24 09:05:14;;;;;;;37.65;5.20;;;33.80;60.00;;;33.58;38.29;100536.63;5022149;28;20197;-50
2021/06/24 09:08:06;;;;;;;28.02;4.75;;;33.90;60.20;;;33.86;36.94;100541.03;5007336;28;20109;-54
2021/06/24 09:10:32;;;;;;;31.55;5.40;;;34.20;58.80;;;34.10;38.32;100548.16;5006850;28;20512;-55
2021/06/24 09:13:02;;;;;;;31.55;5.13;;;34.40;60.20;;;34.29;37.33;100538.88;5024012;28;20159;-54
2021/06/24 09:15:38;;;;;;;25.02;5.15;;;34.60;59.20;;;34.43;37.01;100540.81;5037884;28;20057;-56
2021/06/24 09:18:22;;;;;;;30.33;4.68;;;34.80;59.10;;;34.17;36.53;100537.75;5022749;28;20084;-52
2021/06/24 09:20:47;;;;;;;31.92;4.90;;;34.70;58.00;;;33.78;37.61;100544.41;5025674;28;20390;-56
2021/06/24 09:23:24;;;;;;;42.28;6.18;;;34.30;58.20;;;33.56;38.23;100546.94;5026061;28;20065;-50
2021/06/24 09:26:14;;;;;;;38.13;5.50;;;34.20;59.20;;;33.41;37.92;100547.19;5040889;28;20067;-55
2021/06/24 09:28:50;;;;;;;36.35;4.70;;;34.00;58.80;;;33.05;37.40;100552.31;5013857;28;20475;-56
2021/06/24 09:31:37;;;;;;;29.58;6.70;;;33.80;58.50;;;33.28;37.20;100543.34;5024635;28;20037;-51
2021/06/24 09:34:18;;;;;;;32.15;4.25;;;33.80;58.10;;;33.41;37.56;100545.28;5034437;28;20069;-57
2021/06/24 09:36:52;;;;;;;31.52;5.25;;;33.90;58.30;;;33.86;36.79;100534.84;5008669;28;20116;-54
2021/06/24 09:39:45;;;;;;;35.38;5.65;;;34.10;58.20;;;34.28;35.86;100542.66;5023867;28;20377;-51
2021/06/24 09:42:13;;;;;;;34.95;5.07;;;34.50;57.40;;;34.31;36.23;100545.91;5023506;28;20057;-63
2021/06/24 09:44:42;;;;;;;31.67;5.85;;;34.60;57.80;;;34.84;35.46;100538.06;5027004;28;20152;-55
2021/06/24 09:47:29;;;;;;;32.25;4.82;;;34.90;57.70;;;34.69;36.03;100535.66;5024375;28;20104;-49
2021/06/24 09:50:08;;;;;;;30.98;5.28;;;35.20;57.00;;;35.02;35.40;100552.53;5040685;28;20041;-56
2021/06/24 09:52:35;;;;;;;34.05;5.47;;;35.30;56.90;;;35.02;34.84;100539.00;5026131;28;20082;-59
2021/06/24 09:55:14;;;;;;;37.22;5.15;;;35.50;55.20;;;34.83;35.28;100539.16;5028269;28;20049;-56
2021/06/24 09:57:41;;;;;;;30.52;5.25;;;35.20;56.20;;;34.33;35.96;100531.00;5023794;28;20036;-54
2021/06/24 10:00:28;;;;;;;38.55;5.70;;;34.90;56.00;;;33.66;36.97;100544.06;5034364;28;20032;-50
2021/06/24 10:03:13;;;;;;;38.00;4.93;;;34.30;57.30;;;34.08;36.51;100547.66;5045580;28;20044;-61
2021/06/24 10:05:44;;;;;;;35.15;5.80;;;34.40;57.80;;;34.23;36.55;100545.47;5028423;28;20037;-51
2021/06/24 10:08:11;;;;;;;45.00;5.32;;;34.60;57.50;;;34.76;35.73;100549.56;5045434;28;20029;-53